sensor_id;sensor_type;location;lat;lon;timestamp;temperature;humidity
5697;DHT22;2873;50.966;7.210;2024-01-07T00:00:00;5.60;99.90
5697;DHT22;2873;50.966;7.210;2024-01-07T00:02:25;5.70;99.90
5697;DHT22;2873;50.966;7.210;2024-01-07T00:04:51;5.60;99.90
5697;DHT22;2873;50.966;7.210;2024-01-07T00:07:17;5.70;99.90
5697;DHT22;2873;50.966;7.210;2024-01-07T00:09:42;5.70;99.90
5697;DHT22;2873;50.966;7.210;2024-01-07T00:12:08;5.60;99.90
5697;DHT22;2873;50.966;7.210;2024-01-07T00:14:33;5.50;99.90
5697;DHT22;2873;50.966;7.210;2024-01-07T00:16:59;5.60;99.90
5697;DHT22;2873;50.966;7.210;2024-01-07T00:19:24;5.50;99.90
5697;DHT22;2873;50.966;7.210;2024-01-07T00:21:50;5.60;99.90
5697;DHT22;2873;50.966;7.210;2024-01-07T00:24:16;5.40;99.90
5697;DHT22;2873;50.966;7.210;2024-01-07T00:26:41;5.50;99.90
5697;DHT22;2873;50.966;7.210;2024-01-07T00:29:07;5.50;99.90
5697;DHT22;2873;50.966;7.210;2024-01-07T00:31:32;5.60;99.90
5697;DHT22;2873;50.966;7.210;2024-01-07T00:33:58;5.50;99.90
5697;DHT22;2873;50.966;7.210;2024-01-07T00:36:23;5.50;99.90
5697;DHT22;2873;50.966;7.210;2024-01-07T00:38:49;5.60;99.90
5697;DHT22;2873;50.966;7.210;2024-01-07T00:41:14;5.50;99.90
5697;DHT22;2873;50.966;7.210;2024-01-07T00:43:40;5.60;99.90
5697;DHT22;2873;50.966;7.210;2024-01-07T00:46:06;5.60;99.90
5697;DHT22;2873;50.966;7.210;2024-01-07T00:48:32;5.60;99.90
5697;DHT22;2873;50.966;7.210;2024-01-07T00:50:57;5.50;99.90
5697;DHT22;2873;50.966;7.210;2024-01-07T00:53:23;5.60;99.90
5697;DHT22;2873;50.966;7.210;2024-01-07T00:55:49;5.60;99.90
5697;DHT22;2873;50.966;7.210;2024-01-07T00:58:14;5.50;99.90
5697;DHT22;2873;50.966;7.210;2024-01-07T01:00:40;5.50;99.90
5697;DHT22;2873;50.966;7.210;2024-01-07T01:03:05;5.60;99.90
5697;DHT22;2873;50.966;7.210;2024-01-07T01:05:31;5.60;99.90
5697;DHT22;2873;50.966;7.210;2024-01-07T01:07:56;5.60;99.90
5697;DHT22;2873;50.966;7.210;2024-01-07T01:10:22;5.70;99.90
5697;DHT22;2873;50.966;7.210;2024-01-07T01:12:47;5.70;99.90
5697;DHT22;2873;50.966;7.210;2024-01-07T01:15:13;5.60;99.90
5697;DHT22;2873;50.966;7.210;2024-01-07T01:17:42;5.70;99.90
5697;DHT22;2873;50.966;7.210;2024-01-07T01:20:08;5.50;99.90
5697;DHT22;2873;50.966;7.210;2024-01-07T01:22:34;5.60;99.90
5697;DHT22;2873;50.966;7.210;2024-01-07T01:24:59;5.60;99.90
5697;DHT22;2873;50.966;7.210;2024-01-07T01:27:25;5.50;99.90
5697;DHT22;2873;50.966;7.210;2024-01-07T01:29:51;5.50;99.90
5697;DHT22;2873;50.966;7.210;2024-01-07T01:32:16;5.50;99.90
5697;DHT22;2873;50.966;7.210;2024-01-07T01:34:42;5.50;99.90
5697;DHT22;2873;50.966;7.210;2024-01-07T01:37:08;5.50;99.90
5697;DHT22;2873;50.966;7.210;2024-01-07T01:39:34;5.70;99.90
5697;DHT22;2873;50.966;7.210;2024-01-07T01:42:00;5.60;99.90
5697;DHT22;2873;50.966;7.210;2024-01-07T01:44:26;5.60;99.90
5697;DHT22;2873;50.966;7.210;2024-01-07T01:46:55;5.50;99.90
5697;DHT22;2873;50.966;7.210;2024-01-07T01:49:21;5.60;99.90
5697;DHT22;2873;50.966;7.210;2024-01-07T01:51:47;5.70;99.90
5697;DHT22;2873;50.966;7.210;2024-01-07T01:54:13;5.80;99.90
5697;DHT22;2873;50.966;7.210;2024-01-07T01:56:41;5.70;99.90
5697;DHT22;2873;50.966;7.210;2024-01-07T01:59:08;5.70;99.90
5697;DHT22;2873;50.966;7.210;2024-01-07T02:01:34;5.70;99.90
5697;DHT22;2873;50.966;7.210;2024-01-07T02:03:59;5.70;99.90
5697;DHT22;2873;50.966;7.210;2024-01-07T02:06:25;5.70;99.90
5697;DHT22;2873;50.966;7.210;2024-01-07T02:08:51;5.80;99.90
5697;DHT22;2873;50.966;7.210;2024-01-07T02:11:21;5.80;99.90
5697;DHT22;2873;50.966;7.210;2024-01-07T02:13:48;5.80;99.90
5697;DHT22;2873;50.966;7.210;2024-01-07T02:16:14;5.90;99.90
5697;DHT22;2873;50.966;7.210;2024-01-07T02:18:41;5.90;99.90
5697;DHT22;2873;50.966;7.210;2024-01-07T02:21:08;5.90;99.90
5697;DHT22;2873;50.966;7.210;2024-01-07T02:23:34;5.80;99.90
5697;DHT22;2873;50.966;7.210;2024-01-07T02:26:00;5.90;99.90
5697;DHT22;2873;50.966;7.210;2024-01-07T02:28:25;5.90;99.90
5697;DHT22;2873;50.966;7.210;2024-01-07T02:30:51;5.60;99.90
5697;DHT22;2873;50.966;7.210;2024-01-07T02:33:16;5.70;99.90
5697;DHT22;2873;50.966;7.210;2024-01-07T02:35:42;5.70;99.90
5697;DHT22;2873;50.966;7.210;2024-01-07T02:38:07;5.90;99.90
5697;DHT22;2873;50.966;7.210;2024-01-07T02:40:33;5.60;99.90
5697;DHT22;2873;50.966;7.210;2024-01-07T02:42:58;5.50;99.90
5697;DHT22;2873;50.966;7.210;2024-01-07T02:45:24;5.60;99.90
5697;DHT22;2873;50.966;7.210;2024-01-07T02:47:50;5.70;99.90
5697;DHT22;2873;50.966;7.210;2024-01-07T02:50:15;5.80;99.90
5697;DHT22;2873;50.966;7.210;2024-01-07T02:52:42;5.70;99.90
5697;DHT22;2873;50.966;7.210;2024-01-07T02:55:08;5.60;99.90
5697;DHT22;2873;50.966;7.210;2024-01-07T02:57:33;5.50;99.90
5697;DHT22;2873;50.966;7.210;2024-01-07T02:59:59;5.60;99.90
5697;DHT22;2873;50.966;7.210;2024-01-07T03:02:24;5.70;99.90
5697;DHT22;2873;50.966;7.210;2024-01-07T03:04:50;5.50;99.90
5697;DHT22;2873;50.966;7.210;2024-01-07T03:07:15;5.50;99.90
5697;DHT22;2873;50.966;7.210;2024-01-07T03:09:41;5.50;99.90
5697;DHT22;2873;50.966;7.210;2024-01-07T03:12:07;5.60;99.90
5697;DHT22;2873;50.966;7.210;2024-01-07T03:14:32;5.60;99.90
5697;DHT22;2873;50.966;7.210;2024-01-07T03:16:58;5.60;99.90
5697;DHT22;2873;50.966;7.210;2024-01-07T03:19:23;5.60;99.90
5697;DHT22;2873;50.966;7.210;2024-01-07T03:21:49;5.50;99.90
5697;DHT22;2873;50.966;7.210;2024-01-07T03:24:14;5.60;99.90
5697;DHT22;2873;50.966;7.210;2024-01-07T03:26:40;5.60;99.90
5697;DHT22;2873;50.966;7.210;2024-01-07T03:29:06;5.60;99.90
5697;DHT22;2873;50.966;7.210;2024-01-07T03:31:31;5.60;99.90
5697;DHT22;2873;50.966;7.210;2024-01-07T03:33:57;5.50;99.90
5697;DHT22;2873;50.966;7.210;2024-01-07T03:36:23;5.60;99.90
5697;DHT22;2873;50.966;7.210;2024-01-07T03:38:48;5.60;99.90
5697;DHT22;2873;50.966;7.210;2024-01-07T03:41:17;5.50;99.90
5697;DHT22;2873;50.966;7.210;2024-01-07T03:43:44;5.30;99.90
5697;DHT22;2873;50.966;7.210;2024-01-07T03:46:10;5.30;99.90
5697;DHT22;2873;50.966;7.210;2024-01-07T03:48:35;5.20;99.90
5697;DHT22;2873;50.966;7.210;2024-01-07T03:51:01;5.40;99.90
5697;DHT22;2873;50.966;7.210;2024-01-07T03:53:26;5.30;99.90
5697;DHT22;2873;50.966;7.210;2024-01-07T03:55:52;5.20;99.90
5697;DHT22;2873;50.966;7.210;2024-01-07T03:58:17;5.40;99.90
5697;DHT22;2873;50.966;7.210;2024-01-07T04:00:43;5.40;99.90
5697;DHT22;2873;50.966;7.210;2024-01-07T04:03:08;5.20;99.90
5697;DHT22;2873;50.966;7.210;2024-01-07T04:05:35;5.10;99.90
5697;DHT22;2873;50.966;7.210;2024-01-07T04:08:01;5.20;99.90
5697;DHT22;2873;50.966;7.210;2024-01-07T04:10:27;5.20;99.90
5697;DHT22;2873;50.966;7.210;2024-01-07T04:12:53;5.20;99.90
5697;DHT22;2873;50.966;7.210;2024-01-07T04:15:20;5.10;99.90
5697;DHT22;2873;50.966;7.210;2024-01-07T04:17:45;5.00;99.90
5697;DHT22;2873;50.966;7.210;2024-01-07T04:20:13;5.00;99.90
5697;DHT22;2873;50.966;7.210;2024-01-07T04:22:39;5.10;99.90
5697;DHT22;2873;50.966;7.210;2024-01-07T04:25:07;5.00;99.90
5697;DHT22;2873;50.966;7.210;2024-01-07T04:27:37;4.90;99.90
5697;DHT22;2873;50.966;7.210;2024-01-07T04:30:04;5.00;99.90
5697;DHT22;2873;50.966;7.210;2024-01-07T04:32:31;5.00;99.90
5697;DHT22;2873;50.966;7.210;2024-01-07T04:34:57;4.90;99.90
5697;DHT22;2873;50.966;7.210;2024-01-07T04:37:23;4.90;99.90
5697;DHT22;2873;50.966;7.210;2024-01-07T04:39:49;4.90;99.90
5697;DHT22;2873;50.966;7.210;2024-01-07T04:42:16;4.90;99.90
5697;DHT22;2873;50.966;7.210;2024-01-07T04:44:42;4.90;99.90
5697;DHT22;2873;50.966;7.210;2024-01-07T04:47:27;4.80;99.90
5697;DHT22;2873;50.966;7.210;2024-01-07T04:49:53;4.90;99.90
5697;DHT22;2873;50.966;7.210;2024-01-07T04:52:18;5.00;99.90
5697;DHT22;2873;50.966;7.210;2024-01-07T04:54:44;5.00;99.90
5697;DHT22;2873;50.966;7.210;2024-01-07T04:57:10;5.10;99.90
5697;DHT22;2873;50.966;7.210;2024-01-07T04:59:35;5.10;99.90
5697;DHT22;2873;50.966;7.210;2024-01-07T05:02:01;5.20;99.90
5697;DHT22;2873;50.966;7.210;2024-01-07T05:04:26;5.00;99.90
5697;DHT22;2873;50.966;7.210;2024-01-07T05:06:52;5.00;99.90
5697;DHT22;2873;50.966;7.210;2024-01-07T05:09:17;5.10;99.90
5697;DHT22;2873;50.966;7.210;2024-01-07T05:11:43;4.90;99.90
5697;DHT22;2873;50.966;7.210;2024-01-07T05:14:08;4.90;99.90
5697;DHT22;2873;50.966;7.210;2024-01-07T05:16:35;5.00;99.90
5697;DHT22;2873;50.966;7.210;2024-01-07T05:19:01;4.90;99.90
5697;DHT22;2873;50.966;7.210;2024-01-07T05:21:26;4.90;99.90
5697;DHT22;2873;50.966;7.210;2024-01-07T05:23:52;4.80;99.90
5697;DHT22;2873;50.966;7.210;2024-01-07T05:26:17;4.70;99.90
5697;DHT22;2873;50.966;7.210;2024-01-07T05:28:43;4.70;99.90
5697;DHT22;2873;50.966;7.210;2024-01-07T05:31:16;4.70;99.90
5697;DHT22;2873;50.966;7.210;2024-01-07T05:33:42;4.60;99.90
5697;DHT22;2873;50.966;7.210;2024-01-07T05:36:08;4.80;99.90
5697;DHT22;2873;50.966;7.210;2024-01-07T05:38:33;4.70;99.90
5697;DHT22;2873;50.966;7.210;2024-01-07T05:40:59;4.60;99.90
5697;DHT22;2873;50.966;7.210;2024-01-07T05:43:24;4.70;99.90
5697;DHT22;2873;50.966;7.210;2024-01-07T05:45:50;4.80;99.90
5697;DHT22;2873;50.966;7.210;2024-01-07T05:48:15;4.70;99.90
5697;DHT22;2873;50.966;7.210;2024-01-07T05:50:41;4.70;99.90
5697;DHT22;2873;50.966;7.210;2024-01-07T05:53:07;4.60;99.90
5697;DHT22;2873;50.966;7.210;2024-01-07T05:55:32;4.60;99.90
5697;DHT22;2873;50.966;7.210;2024-01-07T05:57:58;4.60;99.90
5697;DHT22;2873;50.966;7.210;2024-01-07T06:00:24;4.80;99.90
5697;DHT22;2873;50.966;7.210;2024-01-07T06:02:49;4.80;99.90
5697;DHT22;2873;50.966;7.210;2024-01-07T06:05:15;4.70;99.90
5697;DHT22;2873;50.966;7.210;2024-01-07T06:07:40;4.70;99.90
5697;DHT22;2873;50.966;7.210;2024-01-07T06:10:06;4.60;99.90
5697;DHT22;2873;50.966;7.210;2024-01-07T06:12:32;4.70;99.90
5697;DHT22;2873;50.966;7.210;2024-01-07T06:14:57;4.60;99.90
5697;DHT22;2873;50.966;7.210;2024-01-07T06:17:23;4.60;99.90
5697;DHT22;2873;50.966;7.210;2024-01-07T06:19:49;4.70;99.90
5697;DHT22;2873;50.966;7.210;2024-01-07T06:22:14;4.70;99.90
5697;DHT22;2873;50.966;7.210;2024-01-07T06:24:40;4.60;99.90
5697;DHT22;2873;50.966;7.210;2024-01-07T06:27:05;4.40;99.90
5697;DHT22;2873;50.966;7.210;2024-01-07T06:29:31;4.60;99.90
5697;DHT22;2873;50.966;7.210;2024-01-07T06:31:57;4.60;99.90
5697;DHT22;2873;50.966;7.210;2024-01-07T06:34:22;4.50;99.90
5697;DHT22;2873;50.966;7.210;2024-01-07T06:36:48;4.50;99.90
5697;DHT22;2873;50.966;7.210;2024-01-07T06:39:14;4.60;99.90
5697;DHT22;2873;50.966;7.210;2024-01-07T06:41:39;4.60;99.90
5697;DHT22;2873;50.966;7.210;2024-01-07T06:44:05;4.60;99.90
5697;DHT22;2873;50.966;7.210;2024-01-07T06:46:31;4.50;99.90
5697;DHT22;2873;50.966;7.210;2024-01-07T06:48:56;4.40;99.90
5697;DHT22;2873;50.966;7.210;2024-01-07T06:51:22;4.50;99.90
5697;DHT22;2873;50.966;7.210;2024-01-07T06:53:47;4.60;99.90
5697;DHT22;2873;50.966;7.210;2024-01-07T06:56:13;4.60;99.90
5697;DHT22;2873;50.966;7.210;2024-01-07T06:58:39;4.50;99.90
5697;DHT22;2873;50.966;7.210;2024-01-07T07:01:07;4.40;99.90
5697;DHT22;2873;50.966;7.210;2024-01-07T07:03:32;4.50;99.90
5697;DHT22;2873;50.966;7.210;2024-01-07T07:05:58;4.50;99.90
5697;DHT22;2873;50.966;7.210;2024-01-07T07:08:24;4.60;99.90
5697;DHT22;2873;50.966;7.210;2024-01-07T07:10:49;4.60;99.90
5697;DHT22;2873;50.966;7.210;2024-01-07T07:13:15;4.60;99.90
5697;DHT22;2873;50.966;7.210;2024-01-07T07:15:40;4.50;99.90
5697;DHT22;2873;50.966;7.210;2024-01-07T07:18:06;4.60;99.90
5697;DHT22;2873;50.966;7.210;2024-01-07T07:20:31;4.70;99.90
5697;DHT22;2873;50.966;7.210;2024-01-07T07:22:57;4.50;99.90
5697;DHT22;2873;50.966;7.210;2024-01-07T07:25:22;4.70;99.90
5697;DHT22;2873;50.966;7.210;2024-01-07T07:27:48;4.80;99.90
5697;DHT22;2873;50.966;7.210;2024-01-07T07:30:14;4.70;99.90
5697;DHT22;2873;50.966;7.210;2024-01-07T07:32:40;4.70;99.90
5697;DHT22;2873;50.966;7.210;2024-01-07T07:35:07;4.80;99.90
5697;DHT22;2873;50.966;7.210;2024-01-07T07:37:33;4.70;99.90
5697;DHT22;2873;50.966;7.210;2024-01-07T07:39:58;4.70;99.90
5697;DHT22;2873;50.966;7.210;2024-01-07T07:42:24;4.70;99.90
5697;DHT22;2873;50.966;7.210;2024-01-07T07:44:49;4.60;99.90
5697;DHT22;2873;50.966;7.210;2024-01-07T07:47:15;4.50;99.90
5697;DHT22;2873;50.966;7.210;2024-01-07T07:49:41;4.60;99.90
5697;DHT22;2873;50.966;7.210;2024-01-07T07:52:07;4.70;99.90
5697;DHT22;2873;50.966;7.210;2024-01-07T07:54:39;4.70;99.90
5697;DHT22;2873;50.966;7.210;2024-01-07T07:57:04;4.70;99.90
5697;DHT22;2873;50.966;7.210;2024-01-07T07:59:30;4.60;99.90
5697;DHT22;2873;50.966;7.210;2024-01-07T08:01:55;4.70;99.90
5697;DHT22;2873;50.966;7.210;2024-01-07T08:04:21;4.50;99.90
5697;DHT22;2873;50.966;7.210;2024-01-07T08:06:47;4.50;99.90
5697;DHT22;2873;50.966;7.210;2024-01-07T08:09:12;4.80;99.90
5697;DHT22;2873;50.966;7.210;2024-01-07T08:11:38;5.00;99.90
5697;DHT22;2873;50.966;7.210;2024-01-07T08:14:03;4.90;99.90
5697;DHT22;2873;50.966;7.210;2024-01-07T08:16:31;4.80;99.90
5697;DHT22;2873;50.966;7.210;2024-01-07T08:18:57;4.90;99.90
5697;DHT22;2873;50.966;7.210;2024-01-07T08:21:22;4.90;99.90
5697;DHT22;2873;50.966;7.210;2024-01-07T08:23:48;5.10;99.90
5697;DHT22;2873;50.966;7.210;2024-01-07T08:26:21;5.20;99.90
5697;DHT22;2873;50.966;7.210;2024-01-07T08:28:46;5.20;99.90
5697;DHT22;2873;50.966;7.210;2024-01-07T08:31:12;5.20;99.90
5697;DHT22;2873;50.966;7.210;2024-01-07T08:33:38;5.20;99.90
5697;DHT22;2873;50.966;7.210;2024-01-07T08:36:04;5.30;99.90
5697;DHT22;2873;50.966;7.210;2024-01-07T08:38:30;5.20;99.90
5697;DHT22;2873;50.966;7.210;2024-01-07T08:40:55;5.20;99.90
5697;DHT22;2873;50.966;7.210;2024-01-07T08:43:21;5.00;99.90
5697;DHT22;2873;50.966;7.210;2024-01-07T08:45:46;5.00;99.90
5697;DHT22;2873;50.966;7.210;2024-01-07T08:48:12;5.20;99.90
5697;DHT22;2873;50.966;7.210;2024-01-07T08:50:38;5.30;99.90
5697;DHT22;2873;50.966;7.210;2024-01-07T08:53:04;5.30;99.90
5697;DHT22;2873;50.966;7.210;2024-01-07T08:55:30;5.20;99.90
5697;DHT22;2873;50.966;7.210;2024-01-07T08:57:57;5.30;99.90
5697;DHT22;2873;50.966;7.210;2024-01-07T09:00:22;5.30;99.90
5697;DHT22;2873;50.966;7.210;2024-01-07T09:02:52;5.20;99.90
5697;DHT22;2873;50.966;7.210;2024-01-07T09:05:17;5.20;99.90
5697;DHT22;2873;50.966;7.210;2024-01-07T09:07:43;5.20;99.90
5697;DHT22;2873;50.966;7.210;2024-01-07T09:10:09;5.00;99.90
5697;DHT22;2873;50.966;7.210;2024-01-07T09:12:36;5.00;99.90
5697;DHT22;2873;50.966;7.210;2024-01-07T09:15:04;5.00;99.90
5697;DHT22;2873;50.966;7.210;2024-01-07T09:17:30;5.00;99.90
5697;DHT22;2873;50.966;7.210;2024-01-07T09:19:56;4.80;99.90
5697;DHT22;2873;50.966;7.210;2024-01-07T09:22:22;4.90;99.90
5697;DHT22;2873;50.966;7.210;2024-01-07T09:24:47;4.90;99.90
5697;DHT22;2873;50.966;7.210;2024-01-07T09:27:13;4.90;99.90
5697;DHT22;2873;50.966;7.210;2024-01-07T09:29:39;4.80;99.90
5697;DHT22;2873;50.966;7.210;2024-01-07T09:32:05;4.80;99.90
5697;DHT22;2873;50.966;7.210;2024-01-07T09:34:31;4.90;99.90
5697;DHT22;2873;50.966;7.210;2024-01-07T09:36:56;4.90;99.90
5697;DHT22;2873;50.966;7.210;2024-01-07T09:39:22;4.90;99.90
5697;DHT22;2873;50.966;7.210;2024-01-07T09:41:47;4.90;99.90
5697;DHT22;2873;50.966;7.210;2024-01-07T09:44:13;5.00;99.90
5697;DHT22;2873;50.966;7.210;2024-01-07T09:46:39;5.10;99.90
5697;DHT22;2873;50.966;7.210;2024-01-07T09:49:06;5.00;99.90
5697;DHT22;2873;50.966;7.210;2024-01-07T09:51:35;5.00;99.90
5697;DHT22;2873;50.966;7.210;2024-01-07T09:54:02;4.90;99.90
5697;DHT22;2873;50.966;7.210;2024-01-07T09:56:45;5.00;99.90
5697;DHT22;2873;50.966;7.210;2024-01-07T09:59:13;4.80;99.90
5697;DHT22;2873;50.966;7.210;2024-01-07T10:01:40;4.90;99.90
5697;DHT22;2873;50.966;7.210;2024-01-07T10:04:06;5.00;99.90
5697;DHT22;2873;50.966;7.210;2024-01-07T10:06:32;4.80;99.90
5697;DHT22;2873;50.966;7.210;2024-01-07T10:08:58;4.80;99.90
5697;DHT22;2873;50.966;7.210;2024-01-07T10:11:24;4.90;99.90
5697;DHT22;2873;50.966;7.210;2024-01-07T10:13:50;4.80;99.90
5697;DHT22;2873;50.966;7.210;2024-01-07T10:16:17;4.90;99.90
5697;DHT22;2873;50.966;7.210;2024-01-07T10:18:43;5.00;99.90
5697;DHT22;2873;50.966;7.210;2024-01-07T10:21:08;4.90;99.90
5697;DHT22;2873;50.966;7.210;2024-01-07T10:23:34;4.90;99.90
5697;DHT22;2873;50.966;7.210;2024-01-07T10:25:59;4.90;99.90
5697;DHT22;2873;50.966;7.210;2024-01-07T10:28:27;4.90;99.90
5697;DHT22;2873;50.966;7.210;2024-01-07T10:30:53;4.70;99.90
5697;DHT22;2873;50.966;7.210;2024-01-07T10:33:18;4.80;99.90
5697;DHT22;2873;50.966;7.210;2024-01-07T10:35:52;4.70;99.90
5697;DHT22;2873;50.966;7.210;2024-01-07T10:38:20;4.80;99.90
5697;DHT22;2873;50.966;7.210;2024-01-07T10:40:48;4.70;99.90
5697;DHT22;2873;50.966;7.210;2024-01-07T10:43:15;4.90;99.90
5697;DHT22;2873;50.966;7.210;2024-01-07T10:45:41;4.90;99.90
5697;DHT22;2873;50.966;7.210;2024-01-07T10:48:08;5.00;99.90
5697;DHT22;2873;50.966;7.210;2024-01-07T10:50:35;4.80;99.90
5697;DHT22;2873;50.966;7.210;2024-01-07T10:53:04;5.00;99.90
5697;DHT22;2873;50.966;7.210;2024-01-07T10:55:34;4.90;99.90
5697;DHT22;2873;50.966;7.210;2024-01-07T10:58:03;4.80;99.90
5697;DHT22;2873;50.966;7.210;2024-01-07T11:00:30;4.80;99.90
5697;DHT22;2873;50.966;7.210;2024-01-07T11:03:10;4.90;99.90
5697;DHT22;2873;50.966;7.210;2024-01-07T11:08:43;4.80;99.90
5697;DHT22;2873;50.966;7.210;2024-01-07T11:11:26;4.80;99.90
5697;DHT22;2873;50.966;7.210;2024-01-07T11:13:53;4.70;99.90
5697;DHT22;2873;50.966;7.210;2024-01-07T11:16:41;4.80;99.90
5697;DHT22;2873;50.966;7.210;2024-01-07T11:19:06;4.70;99.90
5697;DHT22;2873;50.966;7.210;2024-01-07T11:21:32;4.80;99.90
5697;DHT22;2873;50.966;7.210;2024-01-07T11:23:58;4.90;99.90
5697;DHT22;2873;50.966;7.210;2024-01-07T11:26:23;4.80;99.90
5697;DHT22;2873;50.966;7.210;2024-01-07T11:29:00;4.60;99.90
5697;DHT22;2873;50.966;7.210;2024-01-07T11:31:45;4.60;99.90
5697;DHT22;2873;50.966;7.210;2024-01-07T11:37:13;4.60;99.90
5697;DHT22;2873;50.966;7.210;2024-01-07T11:39:42;4.50;99.90
5697;DHT22;2873;50.966;7.210;2024-01-07T11:42:09;4.60;99.90
5697;DHT22;2873;50.966;7.210;2024-01-07T11:44:36;4.50;99.90
5697;DHT22;2873;50.966;7.210;2024-01-07T11:47:05;4.40;99.90
5697;DHT22;2873;50.966;7.210;2024-01-07T11:49:32;4.40;99.90
5697;DHT22;2873;50.966;7.210;2024-01-07T11:51:58;4.20;99.90
5697;DHT22;2873;50.966;7.210;2024-01-07T11:54:24;4.50;99.90
5697;DHT22;2873;50.966;7.210;2024-01-07T11:56:49;4.30;99.90
5697;DHT22;2873;50.966;7.210;2024-01-07T11:59:15;4.30;99.90
5697;DHT22;2873;50.966;7.210;2024-01-07T12:01:40;4.50;99.90
5697;DHT22;2873;50.966;7.210;2024-01-07T12:04:06;4.50;99.90
5697;DHT22;2873;50.966;7.210;2024-01-07T12:06:33;4.50;99.90
5697;DHT22;2873;50.966;7.210;2024-01-07T12:08:58;4.20;99.90
5697;DHT22;2873;50.966;7.210;2024-01-07T12:11:24;4.20;99.90
5697;DHT22;2873;50.966;7.210;2024-01-07T12:13:50;4.10;99.90
5697;DHT22;2873;50.966;7.210;2024-01-07T12:16:16;4.20;99.90
5697;DHT22;2873;50.966;7.210;2024-01-07T12:18:41;4.10;99.90
5697;DHT22;2873;50.966;7.210;2024-01-07T12:21:07;3.80;99.90
5697;DHT22;2873;50.966;7.210;2024-01-07T12:23:37;4.00;99.90
5697;DHT22;2873;50.966;7.210;2024-01-07T12:26:11;4.00;99.90
5697;DHT22;2873;50.966;7.210;2024-01-07T12:28:38;3.90;99.90
5697;DHT22;2873;50.966;7.210;2024-01-07T12:31:07;4.00;99.90
5697;DHT22;2873;50.966;7.210;2024-01-07T12:33:33;4.00;99.90
5697;DHT22;2873;50.966;7.210;2024-01-07T12:35:59;4.00;99.90
5697;DHT22;2873;50.966;7.210;2024-01-07T12:38:25;4.10;99.90
5697;DHT22;2873;50.966;7.210;2024-01-07T12:40:52;4.10;99.90
5697;DHT22;2873;50.966;7.210;2024-01-07T12:43:18;4.20;99.90
5697;DHT22;2873;50.966;7.210;2024-01-07T12:45:44;4.20;99.90
5697;DHT22;2873;50.966;7.210;2024-01-07T12:48:10;4.20;99.90
5697;DHT22;2873;50.966;7.210;2024-01-07T12:50:35;4.20;99.90
5697;DHT22;2873;50.966;7.210;2024-01-07T12:53:01;4.30;99.90
5697;DHT22;2873;50.966;7.210;2024-01-07T12:55:27;4.20;99.90
5697;DHT22;2873;50.966;7.210;2024-01-07T12:57:52;4.30;99.90
5697;DHT22;2873;50.966;7.210;2024-01-07T13:00:19;4.10;99.90
5697;DHT22;2873;50.966;7.210;2024-01-07T13:02:45;4.20;99.90
5697;DHT22;2873;50.966;7.210;2024-01-07T13:05:11;4.20;99.90
5697;DHT22;2873;50.966;7.210;2024-01-07T13:07:36;4.10;99.90
5697;DHT22;2873;50.966;7.210;2024-01-07T13:10:02;4.10;99.90
5697;DHT22;2873;50.966;7.210;2024-01-07T13:12:27;4.00;99.90
5697;DHT22;2873;50.966;7.210;2024-01-07T13:14:53;4.00;99.90
5697;DHT22;2873;50.966;7.210;2024-01-07T13:17:19;4.00;99.90
5697;DHT22;2873;50.966;7.210;2024-01-07T13:19:44;4.10;99.90
5697;DHT22;2873;50.966;7.210;2024-01-07T13:22:10;4.10;99.90
5697;DHT22;2873;50.966;7.210;2024-01-07T13:24:36;4.10;99.90
5697;DHT22;2873;50.966;7.210;2024-01-07T13:27:02;4.10;99.90
5697;DHT22;2873;50.966;7.210;2024-01-07T13:29:28;4.10;99.90
5697;DHT22;2873;50.966;7.210;2024-01-07T13:31:53;4.00;99.90
5697;DHT22;2873;50.966;7.210;2024-01-07T13:34:19;4.00;99.90
5697;DHT22;2873;50.966;7.210;2024-01-07T13:36:44;3.90;99.90
5697;DHT22;2873;50.966;7.210;2024-01-07T13:39:10;3.90;99.90
5697;DHT22;2873;50.966;7.210;2024-01-07T13:41:36;3.80;99.90
5697;DHT22;2873;50.966;7.210;2024-01-07T13:44:01;3.70;99.90
5697;DHT22;2873;50.966;7.210;2024-01-07T13:46:28;3.80;99.90
5697;DHT22;2873;50.966;7.210;2024-01-07T13:48:54;3.80;99.90
5697;DHT22;2873;50.966;7.210;2024-01-07T13:51:20;3.80;99.90
5697;DHT22;2873;50.966;7.210;2024-01-07T13:53:45;3.60;99.90
5697;DHT22;2873;50.966;7.210;2024-01-07T13:56:12;3.90;99.90
5697;DHT22;2873;50.966;7.210;2024-01-07T13:58:38;3.80;99.90
5697;DHT22;2873;50.966;7.210;2024-01-07T14:01:03;3.90;99.90
5697;DHT22;2873;50.966;7.210;2024-01-07T14:03:30;3.80;99.90
5697;DHT22;2873;50.966;7.210;2024-01-07T14:05:58;3.80;99.90
5697;DHT22;2873;50.966;7.210;2024-01-07T14:08:24;3.80;99.90
5697;DHT22;2873;50.966;7.210;2024-01-07T14:10:49;3.80;99.90
5697;DHT22;2873;50.966;7.210;2024-01-07T14:13:15;3.60;99.90
5697;DHT22;2873;50.966;7.210;2024-01-07T14:15:40;3.50;99.90
5697;DHT22;2873;50.966;7.210;2024-01-07T14:18:06;3.50;99.90
5697;DHT22;2873;50.966;7.210;2024-01-07T14:20:31;3.40;99.90
5697;DHT22;2873;50.966;7.210;2024-01-07T14:22:57;3.40;99.90
5697;DHT22;2873;50.966;7.210;2024-01-07T14:25:24;3.30;99.90
5697;DHT22;2873;50.966;7.210;2024-01-07T14:27:49;3.20;99.90
5697;DHT22;2873;50.966;7.210;2024-01-07T14:30:15;3.40;99.90
5697;DHT22;2873;50.966;7.210;2024-01-07T14:32:41;3.20;99.90
5697;DHT22;2873;50.966;7.210;2024-01-07T14:35:07;3.10;99.90
5697;DHT22;2873;50.966;7.210;2024-01-07T14:37:32;3.10;99.90
5697;DHT22;2873;50.966;7.210;2024-01-07T14:39:58;3.20;99.90
5697;DHT22;2873;50.966;7.210;2024-01-07T14:42:23;3.00;99.90
5697;DHT22;2873;50.966;7.210;2024-01-07T14:44:49;3.10;99.90
5697;DHT22;2873;50.966;7.210;2024-01-07T14:47:15;3.10;99.90
5697;DHT22;2873;50.966;7.210;2024-01-07T14:49:41;2.90;99.90
5697;DHT22;2873;50.966;7.210;2024-01-07T14:52:06;3.10;99.90
5697;DHT22;2873;50.966;7.210;2024-01-07T14:54:32;3.20;99.90
5697;DHT22;2873;50.966;7.210;2024-01-07T14:56:58;3.10;99.90
5697;DHT22;2873;50.966;7.210;2024-01-07T14:59:24;3.00;99.90
5697;DHT22;2873;50.966;7.210;2024-01-07T15:01:49;2.70;99.90
5697;DHT22;2873;50.966;7.210;2024-01-07T15:04:15;2.80;99.90
5697;DHT22;2873;50.966;7.210;2024-01-07T15:06:42;2.90;99.90
5697;DHT22;2873;50.966;7.210;2024-01-07T15:09:08;2.70;99.90
5697;DHT22;2873;50.966;7.210;2024-01-07T15:11:33;2.80;99.90
5697;DHT22;2873;50.966;7.210;2024-01-07T15:13:59;2.80;99.90
5697;DHT22;2873;50.966;7.210;2024-01-07T15:16:25;2.80;99.90
5697;DHT22;2873;50.966;7.210;2024-01-07T15:18:51;2.50;99.90
5697;DHT22;2873;50.966;7.210;2024-01-07T15:21:17;2.60;99.90
5697;DHT22;2873;50.966;7.210;2024-01-07T15:23:42;2.50;99.90
5697;DHT22;2873;50.966;7.210;2024-01-07T15:26:08;2.50;99.90
5697;DHT22;2873;50.966;7.210;2024-01-07T15:28:34;2.60;99.90
5697;DHT22;2873;50.966;7.210;2024-01-07T15:30:59;2.70;99.90
5697;DHT22;2873;50.966;7.210;2024-01-07T15:33:25;2.40;99.90
5697;DHT22;2873;50.966;7.210;2024-01-07T15:35:51;2.70;99.90
5697;DHT22;2873;50.966;7.210;2024-01-07T15:38:17;2.40;99.90
5697;DHT22;2873;50.966;7.210;2024-01-07T15:40:43;2.40;99.90
5697;DHT22;2873;50.966;7.210;2024-01-07T15:43:10;2.50;99.90
5697;DHT22;2873;50.966;7.210;2024-01-07T15:45:37;2.10;99.90
5697;DHT22;2873;50.966;7.210;2024-01-07T15:48:03;2.30;99.90
5697;DHT22;2873;50.966;7.210;2024-01-07T15:50:29;2.60;99.90
5697;DHT22;2873;50.966;7.210;2024-01-07T15:52:54;2.60;99.90
5697;DHT22;2873;50.966;7.210;2024-01-07T15:55:21;2.40;99.90
5697;DHT22;2873;50.966;7.210;2024-01-07T15:57:46;2.50;99.90
5697;DHT22;2873;50.966;7.210;2024-01-07T16:00:13;2.40;99.90
5697;DHT22;2873;50.966;7.210;2024-01-07T16:02:39;2.40;99.90
5697;DHT22;2873;50.966;7.210;2024-01-07T16:05:04;2.20;99.90
5697;DHT22;2873;50.966;7.210;2024-01-07T16:07:31;2.20;99.90
5697;DHT22;2873;50.966;7.210;2024-01-07T16:09:56;2.30;99.90
5697;DHT22;2873;50.966;7.210;2024-01-07T16:12:22;2.20;99.90
5697;DHT22;2873;50.966;7.210;2024-01-07T16:14:47;2.30;99.90